Time;durP1;ratioP1;P1;durP2;ratioP2;P2;SDS_P1;SDS_P2;PMS_P1;PMS_P2;Temp;Humidity;BMP_temperature;BMP_pressure;BME280_temperature;BME280_humidity;BME280_pressure;Samples;Min_cycle;Max_cycle;Signal;HPM_P1;HPM_P2
2022/05/07 00:00:47;;;;;;;;;8.25;5.50;;;;;15.37;52.98;101591.22;4938079;28;45284;-61
2022/05/07 00:03:13;;;;;;;;;6.25;6.25;;;;;15.33;53.05;101590.50;4956249;28;45609;-61
2022/05/07 00:05:38;;;;;;;;;7.00;7.00;;;;;15.32;53.01;101587.91;4956498;28;45360;-60
2022/05/07 00:08:05;;;;;;;;;7.50;5.25;;;;;15.28;53.59;101589.84;4955883;28;46093;-61
2022/05/07 00:10:30;;;;;;;;;7.50;7.50;;;;;15.23;53.66;101593.63;4955807;28;45596;-60
2022/05/07 00:12:56;;;;;;;;;8.75;7.00;;;;;15.20;53.85;101586.69;4956800;28;45833;-60
2022/05/07 00:15:22;;;;;;;;;7.00;7.00;;;;;15.16;53.96;101582.44;4958254;28;45568;-60
2022/05/07 00:18:05;;;;;;;;;11.00;8.75;;;;;15.02;54.69;101570.66;4955662;28;46354;-62
2022/05/07 00:20:32;;;;;;;;;10.75;8.50;;;;;15.05;54.42;101574.94;4955538;28;45358;-61
2022/05/07 00:22:58;;;;;;;;;8.75;8.75;;;;;15.03;54.50;101585.63;4955511;28;45449;-60
2022/05/07 00:25:24;;;;;;;;;10.50;9.25;;;;;14.88;54.90;101563.28;4955747;28;45382;-61
2022/05/07 00:27:49;;;;;;;;;10.00;8.00;;;;;14.92;55.32;101574.63;4957415;28;46217;-62
2022/05/07 00:30:15;;;;;;;;;9.00;9.00;;;;;14.86;55.98;101580.19;4955152;28;45409;-60
2022/05/07 00:32:41;;;;;;;;;11.00;9.50;;;;;14.80;55.88;101577.78;4938463;28;45318;-60
2022/05/07 00:35:07;;;;;;;;;8.25;8.25;;;;;14.76;55.94;101577.06;4955546;28;45313;-62
2022/05/07 00:37:32;;;;;;;;;11.25;10.25;;;;;14.59;56.06;101552.09;4955634;28;46673;-62
2022/05/07 00:39:57;;;;;;;;;12.75;10.00;;;;;14.64;56.43;101565.16;4955570;28;45397;-63
2022/05/07 00:42:23;;;;;;;;;10.50;10.00;;;;;14.62;56.40;101559.03;4955382;28;45232;-62
2022/05/07 00:44:49;;;;;;;;;10.75;9.25;;;;;14.59;56.52;101556.53;4955528;28;45200;-60
2022/05/07 00:47:23;;;;;;;;;10.50;8.00;;;;;14.62;56.43;101567.00;4956792;28;46169;-62
2022/05/07 00:49:51;;;;;;;;;10.75;10.75;;;;;14.59;56.54;101561.81;4941137;28;45303;-60
2022/05/07 00:52:18;;;;;;;;;9.25;8.25;;;;;14.59;57.05;101569.78;4960408;28;45407;-62
2022/05/07 00:54:44;;;;;;;;;9.75;9.75;;;;;14.53;57.03;101562.97;4959747;28;45390;-62
2022/05/07 00:57:12;;;;;;;;;11.00;11.00;;;;;14.50;57.32;101563.09;4958768;28;46591;-62
2022/05/07 00:59:37;;;;;;;;;12.00;12.00;;;;;14.46;57.74;101562.34;4958567;28;45306;-61
2022/05/07 01:02:02;;;;;;;;;15.00;12.50;;;;;14.41;57.49;101560.81;4958309;28;45189;-62
2022/05/07 01:04:28;;;;;;;;;13.00;13.00;;;;;14.37;58.17;101560.06;4958636;28;45355;-60
2022/05/07 01:06:54;;;;;;;;;16.25;14.00;;;;;14.34;58.00;101562.00;4958013;28;45381;-61
2022/05/07 01:09:20;;;;;;;;;10.75;10.75;;;;;14.30;58.07;101564.72;4958190;28;45322;-62
2022/05/07 01:11:46;;;;;;;;;9.25;8.00;;;;;14.26;58.47;101559.63;4960617;28;45346;-60
2022/05/07 01:14:12;;;;;;;;;12.25;10.50;;;;;14.21;58.83;101553.66;4958707;28;45522;-61
2022/05/07 01:16:37;;;;;;;;;12.25;12.25;;;;;14.17;58.72;101558.22;4957765;28;46263;-61
2022/05/07 01:19:02;;;;;;;;;12.00;8.75;;;;;14.07;58.80;101552.44;4958162;28;45355;-60
2022/05/07 01:21:28;;;;;;;;;14.25;11.75;;;;;14.04;59.02;101555.19;4958537;28;45326;-59
2022/05/07 01:23:54;;;;;;;;;12.25;12.25;;;;;14.04;59.09;101555.19;4962147;28;45548;-60
2022/05/07 01:26:24;;;;;;;;;14.25;11.75;;;;;13.98;59.02;101550.16;4958921;28;46500;-60
2022/05/07 01:28:50;;;;;;;;;16.25;13.25;;;;;13.96;59.41;101558.13;4957362;28;45301;-61
2022/05/07 01:31:16;;;;;;;;;16.00;13.00;;;;;13.95;59.65;101559.06;4957818;28;45560;-60
2022/05/07 01:33:42;;;;;;;;;13.50;12.00;;;;;13.93;59.42;101555.59;4958405;28;45404;-62
2022/05/07 01:36:11;;;;;;;;;14.25;13.25;;;;;13.92;59.76;101550.38;4958352;28;46210;-63
2022/05/07 01:38:36;;;;;;;;;16.00;13.50;;;;;13.87;59.78;101556.72;4957909;28;45293;-61
2022/05/07 01:41:03;;;;;;;;;12.75;11.00;;;;;13.83;60.18;101555.13;4956584;28;45285;-60
2022/05/07 01:43:29;;;;;;;;;11.50;9.00;;;;;13.78;59.89;101554.41;4958030;28;45453;-61
2022/05/07 01:45:55;;;;;;;;;18.00;12.50;;;;;13.76;60.22;101550.94;4957250;28;45403;-64
2022/05/07 01:48:21;;;;;;;;;12.00;12.00;;;;;13.71;60.24;101544.97;4957331;28;45465;-61
2022/05/07 01:50:47;;;;;;;;;19.00;14.50;;;;;13.68;60.04;101550.38;4957702;28;45346;-61
2022/05/07 01:53:14;;;;;;;;;12.75;11.00;;;;;13.64;60.52;101560.22;4940299;28;45340;-60
2022/05/07 01:55:39;;;;;;;;;12.25;12.25;;;;;13.61;60.45;101546.25;4958046;28;45333;-64
2022/05/07 01:58:05;;;;;;;;;7.50;7.50;;;;;13.54;60.62;101538.53;4957569;28;45314;-60
2022/05/07 02:00:31;;;;;;;;;16.75;14.00;;;;;13.56;60.72;101541.16;4957822;28;45149;-62
2022/05/07 02:02:58;;;;;;;;;14.50;13.00;;;;;13.55;60.43;101540.28;4958196;28;45437;-61
2022/05/07 02:05:25;;;;;;;;;13.50;13.00;;;;;13.54;60.65;101543.00;4957292;28;45405;-60
2022/05/07 02:07:51;;;;;;;;;15.00;13.25;;;;;13.53;60.61;101538.63;4957486;28;45394;-61
2022/05/07 02:10:16;;;;;;;;;12.75;11.50;;;;;13.52;60.59;101537.75;4957536;28;45426;-61
2022/05/07 02:12:42;;;;;;;;;11.75;11.00;;;;;13.53;60.91;101542.13;4957696;28;45301;-61
2022/05/07 02:15:08;;;;;;;;;13.00;12.00;;;;;13.52;60.60;101542.19;4957971;28;45366;-60
2022/05/07 02:17:33;;;;;;;;;14.25;14.25;;;;;13.51;60.57;101543.94;4961803;28;45308;-61
2022/05/07 02:19:58;;;;;;;;;15.75;11.50;;;;;13.51;60.85;101540.47;4957994;28;45446;-61
2022/05/07 02:22:24;;;;;;;;;13.50;11.75;;;;;13.52;60.70;101531.63;4940655;28;45398;-60
2022/05/07 02:24:50;;;;;;;;;13.75;13.00;;;;;13.52;60.86;101537.75;4939750;28;47123;-60
2022/05/07 02:27:15;;;;;;;;;16.25;12.00;;;;;13.51;60.55;101536.03;4957353;28;45316;-60
2022/05/07 02:29:41;;;;;;;;;13.75;12.25;;;;;13.49;60.66;101532.56;4957159;28;45492;-60
2022/05/07 02:32:06;;;;;;;;;15.25;15.25;;;;;13.44;60.76;101521.31;4959732;28;45216;-60
2022/05/07 02:34:36;;;;;;;;;10.50;9.75;;;;;13.49;60.64;101532.56;4960555;28;46412;-60
2022/05/07 02:37:03;;;;;;;;;14.25;12.25;;;;;13.41;60.95;101526.69;4959268;28;45424;-59
2022/05/07 02:39:29;;;;;;;;;13.25;8.50;;;;;13.40;60.96;101530.25;4957968;28;45346;-59
2022/05/07 02:44:39;;;;;;;;;16.00;13.25;;;;;13.34;60.99;101539.28;4959646;28;45422;-62
2022/05/07 02:47:05;;;;;;;;;16.25;12.75;;;;;13.24;61.67;101522.00;4958378;28;45338;-61
2022/05/07 02:49:34;;;;;;;;;15.00;15.00;;;;;13.24;62.13;101541.38;4956837;28;45312;-61
2022/05/07 02:51:59;;;;;;;;;20.75;14.00;;;;;13.18;62.41;101538.94;4957128;28;45501;-60
2022/05/07 02:54:25;;;;;;;;;14.00;11.25;;;;;13.09;63.18;101540.13;4956570;28;46170;-61
2022/05/07 02:56:50;;;;;;;;;14.75;14.75;;;;;13.02;63.20;101537.78;4956627;28;45457;-60
2022/05/07 02:59:15;;;;;;;;;12.25;12.25;;;;;12.94;63.30;101545.94;4956951;28;45520;-61
2022/05/07 03:01:41;;;;;;;;;15.50;11.50;;;;;12.88;63.73;101551.44;4956921;28;45273;-62
2022/05/07 03:04:10;;;;;;;;;14.50;13.50;;;;;12.80;63.78;101533.25;4956468;28;45515;-62
2022/05/07 03:06:36;;;;;;;;;16.50;13.00;;;;;12.73;64.00;101526.44;4956493;28;45397;-60
2022/05/07 03:09:03;;;;;;;;;11.50;11.50;;;;;12.70;63.77;101530.03;4957444;28;45262;-59
2022/05/07 03:11:29;;;;;;;;;18.00;13.50;;;;;12.68;64.02;101535.34;4955390;28;45270;-60
2022/05/07 03:13:54;;;;;;;;;15.25;13.50;;;;;12.59;64.33;101525.09;4955954;28;46299;-61
2022/05/07 03:16:19;;;;;;;;;15.75;14.00;;;;;12.20;64.80;101460.44;4955932;28;52050;-61
2022/05/07 03:18:45;;;;;;;;;15.75;12.50;;;;;12.65;64.98;101524.06;4956285;28;45312;-60
2022/05/07 03:21:11;;;;;;;;;14.75;13.00;;;;;12.64;64.69;101531.09;4956857;28;45409;-60
2022/05/07 03:23:36;;;;;;;;;15.50;13.50;;;;;12.60;64.77;101520.72;4956417;28;45402;-60
2022/05/07 03:26:01;;;;;;;;;16.50;14.25;;;;;12.66;64.78;101526.63;4958539;28;45396;-59
2022/05/07 03:28:27;;;;;;;;;17.25;12.50;;;;;12.47;64.94;101491.22;4956803;28;45532;-60
2022/05/07 03:30:52;;;;;;;;;16.25;13.75;;;;;12.71;65.00;101523.84;4956439;28;45413;-61
2022/05/07 03:33:18;;;;;;;;;14.25;14.25;;;;;12.73;64.91;101532.56;4956301;28;45306;-60
2022/05/07 03:35:47;;;;;;;;;18.50;17.25;;;;;12.74;65.32;101531.66;4956974;28;45321;-59
2022/05/07 03:38:12;;;;;;;;;19.25;16.75;;;;;12.74;65.83;101528.19;4957847;28;45243;-59
2022/05/07 03:40:38;;;;;;;;;17.00;15.00;;;;;12.69;65.75;101526.53;4956739;28;45246;-60
2022/05/07 03:43:04;;;;;;;;;17.50;17.50;;;;;12.73;65.83;101527.28;4955645;28;47036;-59
2022/05/07 03:45:30;;;;;;;;;18.50;16.75;;;;;12.71;65.93;101532.63;4955880;28;45795;-61
2022/05/07 03:47:56;;;;;;;;;21.00;18.00;;;;;12.69;66.12;101525.69;4955829;28;45362;-62
2022/05/07 03:50:21;;;;;;;;;23.75;23.75;;;;;12.65;66.11;101513.50;4959865;28;45473;-62
2022/05/07 03:55:30;;;;;;;;;18.50;15.75;;;;;12.57;66.58;101522.53;4955630;28;45187;-59
2022/05/07 03:57:55;;;;;;;;;17.25;14.25;;;;;12.62;67.32;101526.81;4955690;28;45568;-59
2022/05/07 04:00:21;;;;;;;;;19.50;16.25;;;;;12.59;67.48;101524.25;4938872;28;45360;-59
2022/05/07 04:02:46;;;;;;;;;18.25;16.25;;;;;12.54;67.40;101513.84;4954096;28;45454;-59
2022/05/07 04:05:11;;;;;;;;;22.25;16.75;;;;;12.52;67.81;101510.41;4955695;28;45344;-59
2022/05/07 04:07:37;;;;;;;;;21.75;18.75;;;;;12.50;67.88;101514.88;4955877;28;45370;-60
2022/05/07 04:10:03;;;;;;;;;18.50;16.00;;;;;12.47;68.22;101514.97;4959015;28;45475;-61
2022/05/07 04:12:29;;;;;;;;;18.50;16.00;;;;;12.41;67.80;101514.25;4938308;28;46138;-59
2022/05/07 04:15:01;;;;;;;;;16.25;16.25;;;;;12.47;68.49;101526.41;4937898;28;52759;-59
2022/05/07 04:17:26;;;;;;;;;19.50;17.00;;;;;12.45;68.69;101516.78;4956958;28;45329;-59
2022/05/07 04:19:52;;;;;;;;;16.25;16.00;;;;;12.45;68.31;101514.16;4957594;28;45421;-61
2022/05/07 04:22:17;;;;;;;;;22.25;18.25;;;;;12.35;68.50;101498.63;4955622;28;46269;-61
2022/05/07 04:24:43;;;;;;;;;21.75;16.75;;;;;12.38;68.98;101511.72;4955445;28;45445;-60
2022/05/07 04:27:09;;;;;;;;;9.25;9.25;;;;;12.32;68.75;101500.53;4955243;28;45405;-60
2022/05/07 04:29:34;;;;;;;;;22.50;19.00;;;;;12.37;69.16;101512.63;4955576;28;45363;-61
2022/05/07 04:31:59;;;;;;;;;20.25;15.00;;;;;12.34;69.13;101515.38;4955356;28;46454;-61
2022/05/07 04:34:28;;;;;;;;;15.75;15.75;;;;;12.31;69.21;101526.03;4955235;28;45451;-59
2022/05/07 04:36:53;;;;;;;;;22.00;17.00;;;;;12.30;69.64;101515.53;4955423;28;45210;-59
2022/05/07 04:39:19;;;;;;;;;16.00;16.00;;;;;12.25;69.19;101505.13;4955283;28;45551;-60
2022/05/07 04:41:44;;;;;;;;;21.50;17.50;;;;;12.28;69.39;101515.56;4955065;28;46115;-61
2022/05/07 04:44:09;;;;;;;;;18.25;17.00;;;;;12.35;69.53;101524.16;4953489;28;45260;-61
2022/05/07 04:46:35;;;;;;;;;19.50;18.25;;;;;12.33;69.29;101516.28;4955526;28;45553;-60
2022/05/07 04:49:00;;;;;;;;;18.50;16.75;;;;;12.36;69.71;101520.63;4955174;28;45554;-62
2022/05/07 04:51:25;;;;;;;;;22.00;17.50;;;;;12.33;69.19;101508.38;4955773;28;45435;-61
2022/05/07 04:53:50;;;;;;;;;16.75;16.50;;;;;12.40;69.10;101520.44;4956916;28;45419;-60
2022/05/07 04:56:16;;;;;;;;;26.25;18.75;;;;;12.47;69.14;101520.25;4954847;28;45346;-60
2022/05/07 04:58:41;;;;;;;;;19.00;19.00;;;;;12.51;69.08;101521.88;4955050;28;45513;-60
2022/05/07 05:01:06;;;;;;;;;20.00;20.00;;;;;12.46;69.09;101497.41;4954491;28;46569;-61
2022/05/07 05:03:32;;;;;;;;;20.50;17.75;;;;;12.59;68.76;101521.63;4954652;28;45322;-61
2022/05/07 05:05:57;;;;;;;;;23.00;20.75;;;;;12.61;69.47;101511.88;4954778;28;45359;-59
2022/05/07 05:08:23;;;;;;;;;18.00;18.00;;;;;12.56;68.75;101510.25;4955214;28;45637;-60
2022/05/07 05:10:48;;;;;;;;;19.00;15.50;;;;;12.59;69.01;101511.91;4953291;28;46774;-61
2022/05/07 05:13:14;;;;;;;;;23.00;21.00;;;;;12.61;69.13;101525.06;4954051;28;58314;-60
2022/05/07 05:15:39;;;;;;;;;21.25;19.50;;;;;12.59;69.13;101519.00;4955539;28;45336;-61
2022/05/07 05:18:04;;;;;;;;;16.50;15.50;;;;;12.61;69.46;101515.38;4957361;28;45325;-61
2022/05/07 05:20:30;;;;;;;;;19.00;18.75;;;;;12.63;69.37;101512.69;4954709;28;46381;-60
2022/05/07 05:22:55;;;;;;;;;23.00;20.00;;;;;12.68;69.21;101514.25;4955039;28;45329;-60
2022/05/07 05:25:21;;;;;;;;;23.00;19.00;;;;;12.68;69.29;101498.41;4954624;28;45246;-60
2022/05/07 05:27:47;;;;;;;;;23.00;20.50;;;;;12.80;69.13;101517.41;4955001;28;45258;-61
2022/05/07 05:30:13;;;;;;;;;21.50;19.00;;;;;12.81;69.17;101512.06;4954104;28;45423;-59
2022/05/07 05:32:38;;;;;;;;;20.50;18.25;;;;;12.86;68.88;101501.34;4953837;28;45350;-61
2022/05/07 05:35:05;;;;;;;;;21.50;19.25;;;;;12.89;69.21;101501.25;4957146;28;45292;-61
2022/05/07 05:37:30;;;;;;;;;20.50;18.25;;;;;12.98;68.39;101508.84;4958536;28;45601;-61
2022/05/07 05:39:56;;;;;;;;;20.25;19.25;;;;;13.11;68.53;101508.38;4958724;28;46235;-59
2022/05/07 05:42:21;;;;;;;;;23.00;19.25;;;;;13.13;68.39;101511.84;4958695;28;45366;-60
2022/05/07 05:44:46;;;;;;;;;25.25;22.25;;;;;13.20;68.22;101509.81;4959398;28;45403;-63
2022/05/07 05:47:12;;;;;;;;;24.50;22.75;;;;;13.21;68.05;101523.00;4957737;28;45647;-60
2022/05/07 05:49:38;;;;;;;;;23.00;20.75;;;;;13.15;68.01;101513.50;4957449;28;46112;-61
2022/05/07 05:52:07;;;;;;;;;20.75;20.75;;;;;13.17;68.44;101521.38;4958046;28;45416;-62
2022/05/07 05:54:34;;;;;;;;;20.50;19.50;;;;;13.23;68.32;101530.84;4959131;28;45319;-60
2022/05/07 05:57:00;;;;;;;;;25.75;22.75;;;;;13.26;68.20;101520.19;4962264;28;45480;-61
2022/05/07 05:59:25;;;;;;;;;24.50;19.50;;;;;13.35;68.16;101521.63;4961756;28;45414;-62
2022/05/07 06:01:51;;;;;;;;;25.25;20.50;;;;;13.49;68.09;101524.66;4957533;28;45317;-60
2022/05/07 06:04:17;;;;;;;;;22.25;20.50;;;;;13.58;68.21;101526.94;4957097;28;45405;-61
2022/05/07 06:06:42;;;;;;;;;21.25;20.50;;;;;13.68;67.52;101530.09;4957328;28;45258;-61
2022/05/07 06:09:07;;;;;;;;;24.50;21.25;;;;;13.74;66.99;101515.78;4956995;28;45910;-61
2022/05/07 06:11:33;;;;;;;;;21.00;21.00;;;;;13.84;67.05;101511.00;4957984;28;45448;-61
2022/05/07 06:13:59;;;;;;;;;23.75;20.50;;;;;13.89;66.82;101511.69;4958703;28;45278;-60
2022/05/07 06:16:24;;;;;;;;;28.25;24.75;;;;;13.88;66.76;101518.78;4957557;28;45457;-63
2022/05/07 06:18:50;;;;;;;;;24.00;20.00;;;;;13.91;66.92;101512.50;4957251;28;45414;-61
2022/05/07 06:21:15;;;;;;;;;28.25;22.25;;;;;13.86;66.53;101501.22;4957498;28;45346;-61
2022/05/07 06:23:41;;;;;;;;;20.75;20.75;;;;;14.01;66.54;101520.94;4960097;28;45321;-60
2022/05/07 06:28:52;;;;;;;;;26.25;22.50;;;;;14.01;66.76;101518.28;4956412;28;45891;-59
2022/05/07 06:31:17;;;;;;;;;23.50;22.25;;;;;14.07;66.53;101528.63;4957736;28;45201;-59
2022/05/07 06:33:43;;;;;;;;;22.25;21.00;;;;;14.15;66.54;101537.13;4958129;28;45316;-59
2022/05/07 06:36:09;;;;;;;;;27.50;25.25;;;;;14.21;66.09;101540.44;4957210;28;45167;-60
2022/05/07 06:38:35;;;;;;;;;21.00;19.50;;;;;14.27;66.20;101541.03;4957379;28;45801;-60
2022/05/07 06:41:05;;;;;;;;;26.25;21.75;;;;;14.35;65.78;101553.13;4957901;28;45270;-61
2022/05/07 06:43:32;;;;;;;;;29.50;25.25;;;;;14.33;65.46;101547.88;4957978;28;45324;-60
2022/05/07 06:45:59;;;;;;;;;22.25;21.25;;;;;14.37;65.41;101549.47;4957440;28;45297;-60
2022/05/07 06:48:25;;;;;;;;;23.75;20.00;;;;;14.42;65.48;101560.75;4956611;28;45374;-60
2022/05/07 06:50:52;;;;;;;;;22.25;21.25;;;;;14.44;65.50;101552.75;4956836;28;45382;-60
2022/05/07 06:53:17;;;;;;;;;25.00;20.75;;;;;14.50;64.94;101556.91;4956803;28;45293;-60
2022/05/07 06:55:55;;;;;;;;;27.25;24.75;;;;;14.54;65.00;101569.09;4956752;28;45470;-60
2022/05/07 06:58:25;;;;;;;;;25.50;24.00;;;;;14.49;65.19;101573.72;4959585;28;45457;-60
2022/05/07 07:00:51;;;;;;;;;30.00;27.00;;;;;14.46;65.18;101572.06;4958135;28;45403;-61
2022/05/07 07:03:17;;;;;;;;;28.25;27.25;;;;;14.49;65.26;101579.00;4957123;28;45548;-59
2022/05/07 07:05:43;;;;;;;;;29.25;26.50;;;;;14.41;65.13;101574.91;4957095;28;45356;-61
2022/05/07 07:08:11;;;;;;;;;27.25;24.25;;;;;14.38;65.14;101563.59;4958824;28;46181;-60
2022/05/07 07:10:37;;;;;;;;;29.00;27.00;;;;;14.43;65.23;101565.09;4956172;28;45262;-59
2022/05/07 07:13:02;;;;;;;;;26.75;25.25;;;;;14.54;65.27;101575.28;4956369;28;45284;-60
2022/05/07 07:15:27;;;;;;;;;25.75;24.50;;;;;14.56;64.75;101568.13;4955389;28;45269;-62
2022/05/07 07:17:53;;;;;;;;;30.75;24.50;;;;;14.64;64.82;101574.88;4956220;28;45475;-61
2022/05/07 07:20:18;;;;;;;;;25.25;22.25;;;;;14.75;64.71;101565.59;4955955;28;45320;-63
2022/05/07 07:22:46;;;;;;;;;29.25;25.75;;;;;14.86;64.23;101569.59;4956189;28;45280;-62
2022/05/07 07:25:11;;;;;;;;;27.75;22.00;;;;;14.92;64.06;101557.84;4955997;28;45589;-62
2022/05/07 07:27:37;;;;;;;;;24.00;19.50;;;;;15.07;63.88;101572.25;4955745;28;45377;-62
2022/05/07 07:30:02;;;;;;;;;28.25;22.00;;;;;15.16;63.28;101563.91;4956311;28;45257;-59
2022/05/07 07:32:28;;;;;;;;;21.75;21.00;;;;;15.24;63.19;101561.75;4956532;28;45315;-61
2022/05/07 07:34:53;;;;;;;;;25.75;25.25;;;;;15.36;63.20;101567.44;4956636;28;45479;-61
2022/05/07 07:37:20;;;;;;;;;24.25;20.50;;;;;15.55;62.71;101568.34;4955713;28;45620;-60
2022/05/07 07:39:45;;;;;;;;;24.50;22.50;;;;;15.67;62.18;101563.41;4956178;28;45392;-60
2022/05/07 07:42:11;;;;;;;;;25.25;23.00;;;;;15.83;62.16;101563.56;4954623;28;45311;-61
2022/05/07 07:44:36;;;;;;;;;19.25;18.00;;;;;15.86;61.54;101572.22;4956721;28;45202;-60
2022/05/07 07:49:45;;;;;;;;;17.75;16.50;;;;;15.83;61.18;101572.38;4956428;28;45469;-61
2022/05/07 07:52:12;;;;;;;;;19.00;18.00;;;;;15.81;61.64;101571.56;4940858;28;45398;-62
2022/05/07 07:54:38;;;;;;;;;28.50;21.75;;;;;15.88;61.41;101564.25;4955995;28;45447;-61
2022/05/07 07:57:04;;;;;;;;;18.00;15.75;;;;;16.00;61.09;101549.53;4955270;28;46172;-62
2022/05/07 07:59:30;;;;;;;;;21.25;20.25;;;;;16.10;60.68;101566.75;4955678;28;45246;-62
2022/05/07 08:01:56;;;;;;;;;18.75;17.75;;;;;16.13;60.66;101563.06;4956722;28;45315;-62
2022/05/07 08:04:25;;;;;;;;;22.00;20.75;;;;;16.17;60.70;101562.88;4955731;28;45328;-62
2022/05/07 08:11:40;;;;;;;;;21.50;20.00;;;;;16.29;60.46;101558.72;4955473;28;47168;-61
2022/05/07 08:12:20;;;;;;;;;24.50;20.25;;;;;16.44;59.80;101557.13;4955253;28;45358;-63
2022/05/07 08:14:45;;;;;;;;;21.50;18.50;;;;;16.49;59.57;101556.91;4938470;28;45509;-62
2022/05/07 08:17:11;;;;;;;;;20.50;17.75;;;;;16.47;59.59;101556.97;4954257;28;47723;-63
2022/05/07 08:19:36;;;;;;;;;21.00;15.75;;;;;16.49;59.78;101555.09;4938160;28;46430;-59
2022/05/07 08:22:02;;;;;;;;;17.75;17.25;;;;;16.50;59.46;101550.66;4956035;28;45220;-62
2022/05/07 08:24:28;;;;;;;;;18.00;14.00;;;;;16.52;59.63;101547.94;4954585;28;45272;-61
2022/05/07 08:26:54;;;;;;;;;22.25;20.00;;;;;16.63;59.45;101551.78;4955427;28;46489;-62
2022/05/07 08:29:21;;;;;;;;;25.75;20.75;;;;;16.82;59.10;101557.94;4955464;28;45164;-62
2022/05/07 08:31:47;;;;;;;;;18.00;18.00;;;;;16.93;58.45;101543.16;4956882;28;45329;-61
2022/05/07 08:34:12;;;;;;;;;18.00;16.50;;;;;17.14;58.64;101553.66;4957310;28;45529;-64
2022/05/07 08:36:38;;;;;;;;;21.75;21.00;;;;;17.30;58.16;101553.72;4955658;28;45856;-62
2022/05/07 08:39:03;;;;;;;;;26.25;23.00;;;;;17.47;57.95;101551.94;4938020;28;45371;-62
2022/05/07 08:41:29;;;;;;;;;21.75;21.00;;;;;17.69;57.51;101556.97;4955871;28;45333;-63
2022/05/07 08:43:54;;;;;;;;;17.75;17.75;;;;;17.85;56.91;101559.63;4955381;28;45282;-62
2022/05/07 08:46:20;;;;;;;;;21.75;17.75;;;;;17.83;56.47;101558.84;4954885;28;45746;-61
2022/05/07 08:48:46;;;;;;;;;17.00;17.00;;;;;17.80;55.79;101554.56;4955270;28;45260;-61
2022/05/07 08:51:17;;;;;;;;;19.25;19.00;;;;;17.85;56.05;101559.63;4955075;28;45656;-63
2022/05/07 08:53:43;;;;;;;;;23.00;20.75;;;;;17.99;55.96;101558.88;4954989;28;45539;-62
2022/05/07 08:56:10;;;;;;;;;21.25;18.50;;;;;18.15;55.99;101550.91;4954871;28;46162;-61
2022/05/07 08:58:36;;;;;;;;;17.50;17.50;;;;;18.46;55.15;101550.94;4955083;28;45370;-61
2022/05/07 09:01:01;;;;;;;;;15.50;11.00;;;;;18.62;54.93;101561.56;4955524;28;45230;-62
2022/05/07 09:03:38;;;;;;;;;19.50;18.00;;;;;18.72;54.78;101557.41;4955722;28;45257;-61
2022/05/07 09:06:15;;;;;;;;;19.25;16.25;;;;;18.88;53.54;101559.16;4955550;28;46305;-61
2022/05/07 09:08:41;;;;;;;;;19.75;17.25;;;;;18.86;54.32;101555.72;4955328;28;45441;-60
2022/05/07 09:11:06;;;;;;;;;14.00;14.00;;;;;18.87;53.75;101554.78;4958289;28;45352;-60
2022/05/07 09:13:35;;;;;;;;;16.75;15.50;;;;;18.90;53.52;101557.25;4958382;28;45624;-60
2022/05/07 09:16:06;;;;;;;;;22.00;19.75;;;;;18.88;53.43;101557.38;4958042;28;46061;-62
2022/05/07 09:18:31;;;;;;;;;20.00;18.25;;;;;18.89;53.32;101561.75;4958303;28;45359;-61
2022/05/07 09:21:16;;;;;;;;;17.25;17.25;;;;;18.88;53.80;101556.50;4958498;28;45451;-61
2022/05/07 09:24:06;;;;;;;;;19.75;17.75;;;;;18.92;53.33;101556.22;4958402;28;45497;-61
2022/05/07 09:26:37;;;;;;;;;21.75;19.00;;;;;18.91;53.79;101543.84;4957579;28;46332;-61
2022/05/07 09:29:08;;;;;;;;;20.50;17.00;;;;;19.03;53.23;101546.75;4957609;28;45389;-61
2022/05/07 09:31:35;;;;;;;;;21.50;19.50;;;;;19.17;53.72;101549.44;4957814;28;45459;-60
2022/05/07 09:36:54;;;;;;;;;18.00;17.00;;;;;19.31;52.64;101532.59;4957629;28;45260;-62
2022/05/07 09:39:20;;;;;;;;;19.25;17.75;;;;;19.45;52.59;101541.53;4959742;28;45318;-61
2022/05/07 09:41:52;;;;;;;;;21.50;21.00;;;;;19.45;52.79;101523.69;4942045;28;45449;-62
2022/05/07 09:44:20;;;;;;;;;18.50;18.25;;;;;19.73;52.36;101534.44;4958274;28;45324;-62
2022/05/07 09:46:46;;;;;;;;;18.00;16.75;;;;;19.81;51.73;101534.81;4957705;28;46135;-63
2022/05/07 09:49:12;;;;;;;;;22.00;20.25;;;;;19.90;52.01;101531.56;4959346;28;45442;-62
2022/05/07 09:51:40;;;;;;;;;22.00;18.00;;;;;19.99;51.49;101539.00;4959793;28;45464;-61
2022/05/07 09:59:37;;;;;;;;;22.00;20.00;;;;;20.19;50.86;101534.19;4956985;28;45436;-62
2022/05/07 10:02:03;;;;;;;;;18.25;18.25;;;;;20.32;50.64;101542.22;4957449;28;45384;-60
2022/05/07 10:05:01;;;;;;;;;22.25;19.75;;;;;20.32;50.97;101539.56;4952835;28;45191;-62
2022/05/07 10:07:33;;;;;;;;;15.50;14.25;;;;;20.41;50.22;101536.25;4934604;28;46161;-61
2022/05/07 10:10:14;;;;;;;;;18.50;17.50;;;;;20.60;50.14;101534.19;4936424;28;45392;-61
2022/05/07 10:12:44;;;;;;;;;19.50;17.75;;;;;20.86;50.32;101533.28;4938126;28;45336;-60
2022/05/07 10:15:13;;;;;;;;;18.25;17.25;;;;;21.09;49.61;101533.50;4921003;28;45300;-60
2022/05/07 10:17:39;;;;;;;;;22.00;19.75;;;;;21.11;48.99;101530.72;4938556;28;46332;-62
2022/05/07 10:20:08;;;;;;;;;18.25;18.25;;;;;21.01;49.11;101535.84;4920688;28;45352;-62
2022/05/07 10:22:34;;;;;;;;;20.75;17.25;;;;;21.00;48.43;101535.00;4936703;28;45253;-64
2022/05/07 10:25:13;;;;;;;;;20.50;17.50;;;;;21.17;48.64;101536.50;4937967;28;45256;-61
2022/05/07 10:27:38;;;;;;;;;24.00;22.25;;;;;21.53;49.04;101534.00;4937717;28;46236;-61
2022/05/07 10:30:08;;;;;;;;;20.50;18.00;;;;;22.00;48.51;101534.22;4937367;28;45409;-62
2022/05/07 10:32:59;;;;;;;;;20.50;18.75;;;;;22.45;47.58;101535.44;4937078;28;45402;-63
2022/05/07 10:35:53;;;;;;;;;22.25;21.25;;;;;22.87;46.48;101527.75;4938771;28;45509;-60
2022/05/07 10:38:27;;;;;;;;;19.75;19.00;;;;;23.09;46.10;101539.50;4940687;28;47282;-61
2022/05/07 10:40:54;;;;;;;;;19.00;17.25;;;;;23.28;46.09;101535.38;4938120;28;45333;-62
2022/05/07 10:43:39;;;;;;;;;18.75;18.75;;;;;23.45;45.24;101526.84;4937585;28;45320;-62
2022/05/07 10:46:10;;;;;;;;;20.00;17.50;;;;;23.51;45.54;101535.41;4937462;28;45388;-62
2022/05/07 10:48:52;;;;;;;;;33.50;29.50;;;;;23.59;43.81;101523.03;4937975;28;45464;-61
2022/05/07 10:51:25;;;;;;;;;25.00;23.75;;;;;23.60;44.93;101523.91;4937370;28;45237;-62
2022/05/07 10:53:59;;;;;;;;;22.00;19.75;;;;;23.49;43.72;101530.13;4936182;28;45420;-60
2022/05/07 10:56:25;;;;;;;;;27.00;22.00;;;;;23.42;43.71;101532.47;4937903;28;45398;-63
2022/05/07 10:58:53;;;;;;;;;17.50;16.50;;;;;23.19;44.47;101527.06;4937382;28;46237;-60
2022/05/07 11:01:20;;;;;;;;;18.00;16.75;;;;;23.23;44.65;101521.44;4937376;28;45367;-63
2022/05/07 11:03:46;;;;;;;;;22.75;19.75;;;;;23.39;44.14;101531.84;4937024;28;45967;-63
2022/05/07 11:06:12;;;;;;;;;21.25;18.50;;;;;23.28;44.65;101521.97;4936406;28;45734;-62
2022/05/07 11:08:52;;;;;;;;;17.50;15.75;;;;;23.30;44.31;101522.69;4936240;28;46964;-63
2022/05/07 11:11:17;;;;;;;;;16.25;14.50;;;;;23.17;44.62;101515.59;4938663;28;45446;-61
2022/05/07 11:13:45;;;;;;;;;20.00;17.25;;;;;23.08;44.93;101508.25;4936189;28;45244;-61
2022/05/07 11:16:11;;;;;;;;;19.50;15.25;;;;;22.98;44.31;101520.69;4937758;28;45276;-63
2022/05/07 11:18:40;;;;;;;;;16.50;16.25;;;;;22.83;44.36;101520.09;4937263;28;45650;-61
2022/05/07 11:21:05;;;;;;;;;21.50;18.75;;;;;22.74;45.21;101510.91;4938125;28;45433;-63
2022/05/07 11:23:36;;;;;;;;;21.00;17.25;;;;;22.66;45.54;101507.97;4937040;28;45468;-62
2022/05/07 11:26:16;;;;;;;;;27.50;26.00;;;;;22.65;45.87;101512.47;4936895;28;45461;-62
2022/05/07 11:28:44;;;;;;;;;25.75;19.50;;;;;22.77;45.22;101516.03;4935516;28;47750;-61
2022/05/07 11:31:31;;;;;;;;;24.00;22.75;;;;;22.81;45.60;101508.63;4935387;28;45291;-62